Pagrindinis puslapis
METAR-TAF:

METAR-TAF

Oro uostai :

Marianhamina, Suomija

platuma: 60-07N, ilguma: 019-54E, Aukštis: 6 m

Dabartinis oras

Ataskaita buvo paskelbta 44 minutes, ne 15:20 UTC
Vėjas 7 kt iš Rytų, svyruoja nuo Šiaurės Rytų ir Rytų/Pietryčių
Temperatūra 11°C
Drėgmė 66%
Slėgis 1019 hPa
Matomumas 10 km arba daugiau
Su prošvaistėmis ne aukštis 2700 ft

METAR: EFMA 161520Z AUTO 08007KT 050V120 9999 BKN027 11/05 Q1019

Laikas: 19:04 (16:04 UTC)

Prognozė

Ataskaita buvo paskelbta 1 valandą ir 35 minutes, ne 14:29 UTC
Prognozė galioja nuo 16 metu 15 UTC su 16 metu 24 UTC
Vėjas 7 kt iš Rytų
Matomumas 10 km arba daugiau
Mažai debesys ne aukštis 3000 ft

TAF: EFMA 161429Z 1615/1624 09007KT 9999 FEW030

Orai ataskaitas ir orų prognozės (METAR, TAF).

turimą stotys yra geltonos ir raudonos taškus žemėlapyje.

Perkelti pele per norėdami pamatyti stoties vardą.

Tada spustelėkite, norėdami matyti oro stebėjimo ir prognozės.

Norėdami pakeisti žemėlapį: spustelėkite ant žalios mygtukų su juodo kryžiaus žemyn,; žalią mygtuką su brūkšneliu, jei norite nutolinti; arba žalių rodyklių gretimoms žemėlapius.


METAR-TAF: